sensor_id;sensor_type;location;lat;lon;timestamp;P1;durP1;ratioP1;P2;durP2;ratioP2
46633;SDS011;32362;49.986;8.026;2023-09-19T00:25:23;5.63;;;2.30;;
46633;SDS011;32362;49.986;8.026;2023-09-19T00:52:05;5.68;;;2.25;;
46633;SDS011;32362;49.986;8.026;2023-09-19T01:18:52;7.18;;;3.33;;
46633;SDS011;32362;49.986;8.026;2023-09-19T02:12:53;4.90;;;2.70;;
46633;SDS011;32362;49.986;8.026;2023-09-19T02:39:34;5.90;;;2.10;;
46633;SDS011;32362;49.986;8.026;2023-09-19T03:06:15;5.07;;;2.00;;
46633;SDS011;32362;49.986;8.026;2023-09-19T03:33:00;6.05;;;2.30;;
46633;SDS011;32362;49.986;8.026;2023-09-19T03:59:42;6.18;;;1.80;;
46633;SDS011;32362;49.986;8.026;2023-09-19T04:26:24;4.22;;;2.25;;
46633;SDS011;32362;49.986;8.026;2023-09-19T04:53:06;9.65;;;2.20;;
46633;SDS011;32362;49.986;8.026;2023-09-19T05:19:47;6.90;;;2.30;;
46633;SDS011;32362;49.986;8.026;2023-09-19T05:46:28;5.20;;;2.53;;
46633;SDS011;32362;49.986;8.026;2023-09-19T06:13:09;5.68;;;2.35;;
46633;SDS011;32362;49.986;8.026;2023-09-19T06:39:50;4.88;;;2.22;;
46633;SDS011;32362;49.986;8.026;2023-09-19T07:06:32;9.32;;;2.58;;
46633;SDS011;32362;49.986;8.026;2023-09-19T07:33:13;6.22;;;1.80;;
46633;SDS011;32362;49.986;8.026;2023-09-19T07:59:54;6.55;;;1.52;;
46633;SDS011;32362;49.986;8.026;2023-09-19T08:26:35;4.93;;;1.58;;
46633;SDS011;32362;49.986;8.026;2023-09-19T09:20:44;6.00;;;1.80;;
46633;SDS011;32362;49.986;8.026;2023-09-19T10:14:37;4.55;;;1.60;;
46633;SDS011;32362;49.986;8.026;2023-09-19T10:41:18;6.90;;;1.80;;
46633;SDS011;32362;49.986;8.026;2023-09-19T11:08:01;7.25;;;1.75;;
46633;SDS011;32362;49.986;8.026;2023-09-19T11:34:45;7.30;;;1.67;;
46633;SDS011;32362;49.986;8.026;2023-09-19T12:01:30;6.47;;;1.50;;
46633;SDS011;32362;49.986;8.026;2023-09-19T12:28:16;8.43;;;1.63;;
46633;SDS011;32362;49.986;8.026;2023-09-19T12:54:57;3.85;;;0.93;;
46633;SDS011;32362;49.986;8.026;2023-09-19T13:21:37;3.55;;;1.20;;
46633;SDS011;32362;49.986;8.026;2023-09-19T13:48:26;3.45;;;1.20;;
46633;SDS011;32362;49.986;8.026;2023-09-19T14:15:08;8.18;;;1.42;;
46633;SDS011;32362;49.986;8.026;2023-09-19T14:41:49;4.18;;;1.00;;
46633;SDS011;32362;49.986;8.026;2023-09-19T15:08:30;6.85;;;1.33;;
46633;SDS011;32362;49.986;8.026;2023-09-19T15:35:11;1.77;;;1.00;;
46633;SDS011;32362;49.986;8.026;2023-09-19T16:01:54;4.60;;;0.75;;
46633;SDS011;32362;49.986;8.026;2023-09-19T16:28:37;9.80;;;1.00;;
46633;SDS011;32362;49.986;8.026;2023-09-19T16:55:19;3.50;;;1.10;;
46633;SDS011;32362;49.986;8.026;2023-09-19T17:22:01;2.72;;;0.73;;
46633;SDS011;32362;49.986;8.026;2023-09-19T17:48:44;4.97;;;0.80;;
46633;SDS011;32362;49.986;8.026;2023-09-19T18:15:27;3.80;;;1.30;;
46633;SDS011;32362;49.986;8.026;2023-09-19T18:42:12;2.57;;;1.10;;
46633;SDS011;32362;49.986;8.026;2023-09-19T19:08:53;3.88;;;0.90;;
46633;SDS011;32362;49.986;8.026;2023-09-19T19:35:34;1.60;;;0.80;;
46633;SDS011;32362;49.986;8.026;2023-09-19T20:02:16;2.20;;;1.00;;
46633;SDS011;32362;49.986;8.026;2023-09-19T20:28:57;5.35;;;0.98;;
46633;SDS011;32362;49.986;8.026;2023-09-19T20:55:39;4.07;;;0.90;;
46633;SDS011;32362;49.986;8.026;2023-09-19T21:22:20;2.50;;;1.23;;
46633;SDS011;32362;49.986;8.026;2023-09-19T21:49:01;7.07;;;1.40;;
46633;SDS011;32362;49.986;8.026;2023-09-19T22:15:42;2.88;;;1.13;;
46633;SDS011;32362;49.986;8.026;2023-09-19T22:42:22;2.70;;;0.80;;
46633;SDS011;32362;49.986;8.026;2023-09-19T23:09:05;2.95;;;1.05;;
46633;SDS011;32362;49.986;8.026;2023-09-19T23:35:47;3.38;;;1.00;;
